Time,TemperatureF,DewpointF,PressureIn,WindDirection,WindDirectionDegrees,WindSpeedMPH,WindSpeedGustMPH,Humidity,HourlyPrecipIn,Conditions,Clouds,dailyrainin,SoftwareType,DateUTC
2013-04-07 00:02:00,67.2,57.2,29.83,South,180,0.0,6.4,70,0.00,,,0.00,WUHU216HW,2013-04-07 05:02:00,
2013-04-07 00:07:00,67.1,57.0,29.83,South,180,3.8,6.4,70,0.00,,,0.00,WUHU216HW,2013-04-07 05:07:00,
2013-04-07 00:12:00,67.1,57.0,29.83,South,180,0.0,5.1,70,0.00,,,0.00,WUHU216HW,2013-04-07 05:12:00,
2013-04-07 00:17:00,66.9,56.8,29.83,SSE,158,0.0,5.1,70,0.00,,,0.00,WUHU216HW,2013-04-07 05:17:00,
2013-04-07 00:26:00,66.9,56.8,29.83,South,180,2.9,2.9,70,0.00,,,0.00,WUHU216HW,2013-04-07 05:26:00,
2013-04-07 00:31:00,66.9,56.8,29.83,South,180,0.0,2.9,70,0.00,,,0.00,WUHU216HW,2013-04-07 05:31:00,
2013-04-07 15:45:00,70.3,61.5,29.75,SE,135,0.0,0.0,74,0.00,,,0.00,WUHU216HW,2013-04-07 20:45:00,
2013-04-07 15:50:00,70.3,61.2,29.75,SSE,158,3.8,3.8,73,0.00,,,0.00,WUHU216HW,2013-04-07 20:50:00,
2013-04-07 15:55:00,70.3,61.2,29.75,SSE,158,0.0,10.9,73,0.00,,,0.00,WUHU216HW,2013-04-07 20:55:00,
2013-04-07 16:00:00,70.5,61.3,29.74,South,180,1.1,10.9,73,0.00,,,0.00,WUHU216HW,2013-04-07 21:00:00,
2013-04-07 16:05:00,70.5,61.3,29.74,South,180,0.0,2.4,73,0.00,,,0.00,WUHU216HW,2013-04-07 21:05:00,
2013-04-07 16:10:00,70.7,61.5,29.74,South,180,0.0,2.4,73,0.00,,,0.00,WUHU216HW,2013-04-07 21:10:00,
2013-04-07 16:16:00,70.7,61.5,29.74,SE,135,0.0,0.0,73,0.00,,,0.00,WUHU216HW,2013-04-07 21:16:00,
2013-04-07 16:21:00,70.8,61.7,29.74,South,180,0.0,0.0,73,0.00,,,0.00,WUHU216HW,2013-04-07 21:21:00,
2013-04-07 16:26:00,71.2,61.7,29.73,SSE,158,4.6,4.6,72,0.00,,,0.00,WUHU216HW,2013-04-07 21:26:00,
2013-04-07 16:31:00,71.2,61.7,29.73,SSW,203,0.0,4.6,72,0.00,,,0.00,WUHU216HW,2013-04-07 21:31:00,
2013-04-07 16:36:00,71.2,61.7,29.73,SSW,203,0.0,6.4,72,0.00,,,0.00,WUHU216HW,2013-04-07 21:36:00,
2013-04-07 16:41:00,71.4,61.9,29.73,South,180,4.2,6.4,72,0.00,,,0.00,WUHU216HW,2013-04-07 21:41:00,
2013-04-07 16:46:00,71.4,61.9,29.73,SSW,203,0.0,6.0,72,0.00,,,0.00,WUHU216HW,2013-04-07 21:46:00,
2013-04-07 16:52:00,71.7,61.8,29.72,South,180,4.2,6.0,71,0.00,,,0.00,WUHU216HW,2013-04-07 21:52:00,
2013-04-07 16:57:00,71.7,61.8,29.72,SSW,203,0.0,6.9,71,0.00,,,0.00,WUHU216HW,2013-04-07 21:57:00,
2013-04-07 17:02:00,71.9,62.0,29.72,South,180,0.0,6.9,71,0.00,,,0.00,WUHU216HW,2013-04-07 22:02:00,
2013-04-07 17:07:00,71.9,62.0,29.72,SSE,158,0.0,0.0,71,0.00,,,0.00,WUHU216HW,2013-04-07 22:07:00,
2013-04-07 17:12:00,71.9,62.0,29.72,South,180,0.0,2.9,71,0.00,,,0.00,WUHU216HW,2013-04-07 22:12:00,
2013-04-07 17:18:00,71.9,61.7,29.72,South,180,0.0,2.9,70,0.00,,,0.00,WUHU216HW,2013-04-07 22:18:00,
2013-04-07 17:23:00,72.1,61.8,29.72,SSW,203,0.0,0.0,70,0.00,,,0.00,WUHU216HW,2013-04-07 22:23:00,
2013-04-07 17:28:00,71.9,61.7,29.72,South,180,0.0,2.0,70,0.00,,,0.00,WUHU216HW,2013-04-07 22:28:00,
2013-04-07 17:33:00,71.9,61.7,29.72,South,180,0.0,3.1,70,0.00,,,0.00,WUHU216HW,2013-04-07 22:33:00,
2013-04-07 17:38:00,71.9,61.7,29.72,SSE,158,0.0,3.8,70,0.00,,,0.00,WUHU216HW,2013-04-07 22:38:00,
2013-04-07 17:43:00,71.9,61.7,29.72,SSE,158,0.0,3.8,70,0.00,,,0.00,WUHU216HW,2013-04-07 22:43:00,
2013-04-07 17:49:00,72.1,61.8,29.71,South,180,3.8,3.8,70,0.00,,,0.00,WUHU216HW,2013-04-07 22:49:00,
2013-04-07 17:54:00,72.3,61.6,29.71,SSE,158,0.0,3.8,69,0.00,,,0.00,WUHU216HW,2013-04-07 22:54:00,
2013-04-07 17:59:00,72.3,61.6,29.71,South,180,0.0,0.0,69,0.00,,,0.00,WUHU216HW,2013-04-07 22:59:00,
2013-04-07 18:04:00,72.3,61.6,29.71,South,180,0.0,0.0,69,0.00,,,0.00,WUHU216HW,2013-04-07 23:04:00,
2013-04-07 18:10:00,72.3,61.6,29.71,South,180,0.6,0.6,69,0.00,,,0.00,WUHU216HW,2013-04-07 23:10:00,
2013-04-07 18:15:00,72.3,61.6,29.71,SSE,158,0.0,0.6,69,0.00,,,0.00,WUHU216HW,2013-04-07 23:15:00,
2013-04-07 18:20:00,72.3,61.6,29.71,SSW,203,0.0,4.6,69,0.00,,,0.00,WUHU216HW,2013-04-07 23:20:00,
2013-04-07 18:25:00,72.3,61.6,29.71,South,180,0.0,4.6,69,0.00,,,0.00,WUHU216HW,2013-04-07 23:25:00,
2013-04-07 18:30:00,72.3,61.6,29.71,SSE,158,0.0,0.0,69,0.00,,,0.00,WUHU216HW,2013-04-07 23:30:00,
2013-04-07 18:35:00,72.3,61.6,29.71,South,180,5.5,5.5,69,0.00,,,0.00,WUHU216HW,2013-04-07 23:35:00,
2013-04-07 18:40:00,72.5,61.7,29.71,South,180,0.0,5.5,69,0.00,,,0.00,WUHU216HW,2013-04-07 23:40:00,
2013-04-07 18:45:00,72.6,61.9,29.71,SE,135,3.1,7.6,69,0.00,,,0.00,WUHU216HW,2013-04-07 23:45:00,
2013-04-07 18:50:00,73.0,62.0,29.71,SE,135,0.0,8.7,68,0.00,,,0.00,WUHU216HW,2013-04-07 23:50:00,
2013-04-07 18:55:00,73.5,62.4,29.71,South,180,0.0,8.7,68,0.00,,,0.00,WUHU216HW,2013-04-07 23:55:00,
2013-04-07 19:00:00,73.5,61.9,29.71,SE,135,0.0,0.0,67,0.00,,,0.00,WUHU216HW,2013-04-08 00:00:00,
2013-04-07 19:05:00,73.7,62.1,29.71,South,180,0.0,0.0,67,0.00,,,0.00,WUHU216HW,2013-04-08 00:05:00,
2013-04-07 19:11:00,73.7,62.1,29.71,SSE,158,1.7,1.7,67,0.00,,,0.00,WUHU216HW,2013-04-08 00:11:00,
2013-04-07 19:16:00,73.9,62.2,29.71,WSW,248,0.0,2.6,67,0.00,,,0.00,WUHU216HW,2013-04-08 00:16:00,
2013-04-07 19:21:00,73.7,62.1,29.71,SSW,203,4.9,4.9,67,0.00,,,0.00,WUHU216HW,2013-04-08 00:21:00,
2013-04-07 19:26:00,73.9,62.2,29.71,SE,135,0.0,8.2,67,0.00,,,0.00,WUHU216HW,2013-04-08 00:26:00,
2013-04-07 19:31:00,73.9,62.2,29.71,SSE,158,3.8,8.2,67,0.00,,,0.00,WUHU216HW,2013-04-08 00:31:00,
2013-04-07 19:37:00,73.9,61.8,29.72,South,180,0.0,3.8,66,0.00,,,0.00,WUHU216HW,2013-04-08 00:37:00,
2013-04-07 19:41:00,73.9,61.8,29.71,South,180,0.0,1.3,66,0.00,,,0.00,WUHU216HW,2013-04-08 00:41:00,
2013-04-07 19:47:00,73.5,61.9,29.71,SSE,158,0.0,0.0,67,0.00,,,0.00,WUHU216HW,2013-04-08 00:47:00,
2013-04-07 19:52:00,73.5,61.9,29.71,SSE,158,0.0,0.0,67,0.00,,,0.00,WUHU216HW,2013-04-08 00:52:00,
2013-04-07 19:57:00,73.4,61.7,29.71,South,180,2.9,4.2,67,0.00,,,0.00,WUHU216HW,2013-04-08 00:57:00,
2013-04-07 20:02:00,73.2,62.0,29.71,SSW,203,0.0,4.2,68,0.00,,,0.00,WUHU216HW,2013-04-08 01:02:00,
2013-04-07 20:07:00,72.8,61.7,29.71,South,180,0.0,2.9,68,0.00,,,0.00,WUHU216HW,2013-04-08 01:07:00,
2013-04-07 20:12:00,72.6,61.5,29.71,South,180,0.0,0.0,68,0.00,,,0.00,WUHU216HW,2013-04-08 01:12:00,
2013-04-07 20:17:00,72.8,62.1,29.71,SSE,158,0.0,2.0,69,0.00,,,0.00,WUHU216HW,2013-04-08 01:17:00,
2013-04-07 20:22:00,72.8,62.1,29.71,SSE,158,0.0,2.0,69,0.00,,,0.00,WUHU216HW,2013-04-08 01:22:00,
2013-04-07 20:28:00,72.8,62.1,29.71,South,180,5.1,5.1,69,0.00,,,0.00,WUHU216HW,2013-04-08 01:28:00,
2013-04-07 20:33:00,73.0,62.3,29.70,SE,135,0.0,5.1,69,0.00,,,0.00,WUHU216HW,2013-04-08 01:33:00,
2013-04-07 20:38:00,72.6,61.9,29.70,South,180,5.8,5.8,69,0.00,,,0.00,WUHU216HW,2013-04-08 01:38:00,
2013-04-07 20:43:00,72.8,62.1,29.71,South,180,0.0,5.8,69,0.00,,,0.00,WUHU216HW,2013-04-08 01:43:00,
2013-04-07 20:48:00,72.6,61.9,29.71,South,180,0.0,3.1,69,0.00,,,0.00,WUHU216HW,2013-04-08 01:48:00,
2013-04-07 20:53:00,72.6,61.9,29.70,South,180,0.0,0.0,69,0.00,,,0.00,WUHU216HW,2013-04-08 01:53:00,
2013-04-07 20:58:00,72.6,61.9,29.70,SE,135,0.0,4.4,69,0.00,,,0.00,WUHU216HW,2013-04-08 01:58:00,
2013-04-07 21:03:00,72.6,61.9,29.70,SSE,158,4.4,4.4,69,0.00,,,0.00,WUHU216HW,2013-04-08 02:03:00,
2013-04-07 21:08:00,72.8,62.1,29.70,South,180,0.0,4.4,69,0.00,,,0.00,WUHU216HW,2013-04-08 02:08:00,
2013-04-07 21:13:00,72.6,61.5,29.70,South,180,0.0,0.0,68,0.00,,,0.00,WUHU216HW,2013-04-08 02:13:00,
2013-04-07 21:19:00,72.3,61.6,29.70,SE,135,0.0,2.4,69,0.00,,,0.00,WUHU216HW,2013-04-08 02:19:00,
2013-04-07 21:24:00,72.1,61.4,29.70,SSE,158,0.0,2.4,69,0.00,,,0.00,WUHU216HW,2013-04-08 02:24:00,
2013-04-07 21:29:00,71.9,61.2,29.70,SSE,158,0.0,0.0,69,0.00,,,0.00,WUHU216HW,2013-04-08 02:29:00,
2013-04-07 21:34:00,71.7,61.5,29.70,South,180,0.0,1.1,70,0.00,,,0.00,WUHU216HW,2013-04-08 02:34:00,
2013-04-07 21:39:00,71.7,61.5,29.71,South,180,5.1,5.1,70,0.00,,,0.00,WUHU216HW,2013-04-08 02:39:00,
2013-04-07 21:45:00,71.4,61.1,29.71,South,180,0.0,5.1,70,0.00,,,0.00,WUHU216HW,2013-04-08 02:45:00,
2013-04-07 21:50:00,71.4,61.1,29.70,South,180,2.2,2.2,70,0.00,,,0.00,WUHU216HW,2013-04-08 02:50:00,
2013-04-07 21:55:00,71.4,61.1,29.70,SSW,203,0.0,3.8,70,0.00,,,0.00,WUHU216HW,2013-04-08 02:55:00,
2013-04-07 22:00:00,71.2,60.9,29.71,SSE,158,6.0,6.0,70,0.00,,,0.00,WUHU216HW,2013-04-08 03:00:00,
2013-04-07 22:05:00,71.2,60.9,29.70,SSE,158,4.4,6.0,70,0.00,,,0.00,WUHU216HW,2013-04-08 03:05:00,
2013-04-07 22:10:00,71.2,60.9,29.70,SSE,158,0.0,4.4,70,0.00,,,0.00,WUHU216HW,2013-04-08 03:10:00,
2013-04-07 22:15:00,71.2,60.9,29.71,SSW,203,0.0,4.4,70,0.00,,,0.00,WUHU216HW,2013-04-08 03:15:00,
2013-04-07 22:20:00,71.2,60.9,29.70,SSE,158,0.0,4.0,70,0.00,,,0.00,WUHU216HW,2013-04-08 03:20:00,
2013-04-07 22:25:00,71.2,60.5,29.71,SSW,203,3.5,14.9,69,0.00,,,0.00,WUHU216HW,2013-04-08 03:25:00,
2013-04-07 22:30:00,71.2,60.5,29.71,South,180,3.5,14.9,69,0.00,,,0.00,WUHU216HW,2013-04-08 03:30:00,
2013-04-07 22:36:00,71.2,60.5,29.72,SW,225,0.0,3.5,69,0.00,,,0.00,WUHU216HW,2013-04-08 03:36:00,
2013-04-07 22:41:00,71.4,60.7,29.71,SSE,158,0.0,3.5,69,0.00,,,0.00,WUHU216HW,2013-04-08 03:41:00,
2013-04-07 22:46:00,71.2,60.5,29.72,South,180,0.0,6.4,69,0.00,,,0.00,WUHU216HW,2013-04-08 03:46:00,
2013-04-07 22:52:00,71.2,60.5,29.71,South,180,0.0,6.4,69,0.00,,,0.00,WUHU216HW,2013-04-08 03:52:00,
2013-04-07 22:57:00,71.2,60.5,29.71,SSE,158,0.0,4.0,69,0.00,,,0.00,WUHU216HW,2013-04-08 03:57:00,
2013-04-07 23:00:00,71.2,60.5,29.71,SSE,158,0.0,4.0,69,0.00,,,0.00,WUHU216HW,2013-04-08 04:00:00,
2013-04-07 23:01:00,71.2,60.5,29.72,South,180,0.0,4.0,69,0.00,,,0.00,WUHU216HW,2013-04-08 04:01:00,
2013-04-07 23:06:00,71.2,60.5,29.72,SSE,158,2.9,2.9,69,0.00,,,0.00,WUHU216HW,2013-04-08 04:06:00,
2013-04-07 23:11:00,71.0,60.3,29.72,SSW,203,0.0,2.9,69,0.00,,,0.00,WUHU216HW,2013-04-08 04:11:00,
2013-04-07 23:17:00,70.8,60.1,29.71,SSE,158,5.3,6.2,69,0.00,,,0.00,WUHU216HW,2013-04-08 04:17:00,
2013-04-07 23:22:00,70.7,60.4,29.71,South,180,0.0,6.2,70,0.00,,,0.00,WUHU216HW,2013-04-08 04:22:00,
2013-04-07 23:27:00,70.7,60.4,29.71,SW,225,0.0,3.1,70,0.00,,,0.00,WUHU216HW,2013-04-08 04:27:00,
2013-04-07 23:32:00,70.7,60.4,29.71,South,180,0.0,3.1,70,0.00,,,0.00,WUHU216HW,2013-04-08 04:32:00,
2013-04-07 23:37:00,70.5,60.2,29.71,South,180,0.0,3.3,70,0.00,,,0.00,WUHU216HW,2013-04-08 04:37:00,
2013-04-07 23:42:00,70.5,60.2,29.71,South,180,4.2,4.2,70,0.00,,,0.00,WUHU216HW,2013-04-08 04:42:00,
2013-04-07 23:47:00,70.5,60.2,29.71,South,180,9.8,9.8,70,0.00,,,0.00,WUHU216HW,2013-04-08 04:47:00,
2013-04-07 23:52:00,70.3,60.0,29.71,SSW,203,0.0,9.8,70,0.00,,,0.00,WUHU216HW,2013-04-08 04:52:00,
2013-04-07 23:57:00,70.3,60.0,29.71,South,180,0.0,0.2,70,0.00,,,0.00,WUHU216HW,2013-04-08 04:57:00,